<?xml version="1.0" encoding="UTF-8" standalone="no" ?>
<gpx xmlns="http://www.topografix.com/GPX/1/1" xmlns:xsi="http://www.w3.org/2001/XMLSchema-instance" xsi:schemaLocation="http://www.topografix.com/GPX/1/1 http://www.topografix.com/GPX/1/1/gpx.xsd" version="1.1" creator="VisuGPX - https://www.visugpx.com">
  <metadata>
    <name>Pic du Néouvielle en boucle</name>
    <desc><![CDATA[Pic du Néouvielle sur 2 jours en ski de randonnée. Départ de "Chez Louisette" et nuit au refuge de La Glère. 
Retour par la horquette d'Aubert et le vallon Dets Coubous jusqu'au parking de Tournaboup.]]></desc>
  </metadata>
  <trk>
    <name><![CDATA[20180418084149-GnZwP]]></name>
    <trkseg>
      <trkpt lat="42.89623" lon="0.0824">
        <ele>1527</ele>
        <time>2018-04-05T06:18:03Z</time>
      </trkpt>
      <trkpt lat="42.89605" lon="0.08247">
        <ele>1527</ele>
        <time>2018-04-05T06:22:23Z</time>
      </trkpt>
      <trkpt lat="42.89587" lon="0.08252">
        <ele>1532</ele>
        <time>2018-04-05T06:22:39Z</time>
      </trkpt>
      <trkpt lat="42.89579" lon="0.08275">
        <ele>1534</ele>
        <time>2018-04-05T06:22:54Z</time>
      </trkpt>
      <trkpt lat="42.8958" lon="0.08247">
        <ele>1528</ele>
        <time>2018-04-05T06:24:44Z</time>
      </trkpt>
      <trkpt lat="42.896" lon="0.08273">
        <ele>1540</ele>
        <time>2018-04-05T06:24:46Z</time>
      </trkpt>
      <trkpt lat="42.89565" lon="0.08256">
        <ele>1532</ele>
        <time>2018-04-05T06:24:53Z</time>
      </trkpt>
      <trkpt lat="42.8958" lon="0.08275">
        <ele>1534</ele>
        <time>2018-04-05T06:25:03Z</time>
      </trkpt>
      <trkpt lat="42.89557" lon="0.08235">
        <ele>1520</ele>
        <time>2018-04-05T06:27:20Z</time>
      </trkpt>
      <trkpt lat="42.89569" lon="0.08255">
        <ele>1532</ele>
        <time>2018-04-05T06:27:38Z</time>
      </trkpt>
      <trkpt lat="42.89562" lon="0.08278">
        <ele>1534</ele>
        <time>2018-04-05T06:31:09Z</time>
      </trkpt>
      <trkpt lat="42.89544" lon="0.08284">
        <ele>1533</ele>
        <time>2018-04-05T06:31:30Z</time>
      </trkpt>
      <trkpt lat="42.89529" lon="0.08298">
        <ele>1534</ele>
        <time>2018-04-05T06:31:45Z</time>
      </trkpt>
      <trkpt lat="42.89515" lon="0.08317">
        <ele>1536</ele>
        <time>2018-04-05T06:31:59Z</time>
      </trkpt>
      <trkpt lat="42.89498" lon="0.08326">
        <ele>1536</ele>
        <time>2018-04-05T06:32:14Z</time>
      </trkpt>
      <trkpt lat="42.89482" lon="0.0834">
        <ele>1545</ele>
        <time>2018-04-05T06:32:28Z</time>
      </trkpt>
      <trkpt lat="42.89469" lon="0.08322">
        <ele>1530</ele>
        <time>2018-04-05T06:32:50Z</time>
      </trkpt>
      <trkpt lat="42.89465" lon="0.08298">
        <ele>1527</ele>
        <time>2018-04-05T06:33:04Z</time>
      </trkpt>
      <trkpt lat="42.89449" lon="0.08283">
        <ele>1525</ele>
        <time>2018-04-05T06:33:20Z</time>
      </trkpt>
      <trkpt lat="42.8943" lon="0.08277">
        <ele>1524</ele>
        <time>2018-04-05T06:33:31Z</time>
      </trkpt>
      <trkpt lat="42.89412" lon="0.08273">
        <ele>1524</ele>
        <time>2018-04-05T06:33:45Z</time>
      </trkpt>
      <trkpt lat="42.89395" lon="0.08263">
        <ele>1524</ele>
        <time>2018-04-05T06:33:59Z</time>
      </trkpt>
      <trkpt lat="42.89392" lon="0.08238">
        <ele>1521</ele>
        <time>2018-04-05T06:34:18Z</time>
      </trkpt>
      <trkpt lat="42.89396" lon="0.08213">
        <ele>1521</ele>
        <time>2018-04-05T06:34:34Z</time>
      </trkpt>
      <trkpt lat="42.89405" lon="0.0819">
        <ele>1520</ele>
        <time>2018-04-05T06:34:52Z</time>
      </trkpt>
      <trkpt lat="42.89415" lon="0.08168">
        <ele>1517</ele>
        <time>2018-04-05T06:35:09Z</time>
      </trkpt>
      <trkpt lat="42.89415" lon="0.08143">
        <ele>1521</ele>
        <time>2018-04-05T06:35:30Z</time>
      </trkpt>
      <trkpt lat="42.894" lon="0.08128">
        <ele>1522</ele>
        <time>2018-04-05T06:35:54Z</time>
      </trkpt>
      <trkpt lat="42.89381" lon="0.08127">
        <ele>1524</ele>
        <time>2018-04-05T06:36:21Z</time>
      </trkpt>
      <trkpt lat="42.89365" lon="0.08136">
        <ele>1525</ele>
        <time>2018-04-05T06:36:46Z</time>
      </trkpt>
      <trkpt lat="42.89347" lon="0.08145">
        <ele>1526</ele>
        <time>2018-04-05T06:37:10Z</time>
      </trkpt>
      <trkpt lat="42.8933" lon="0.08153">
        <ele>1535</ele>
        <time>2018-04-05T06:37:34Z</time>
      </trkpt>
      <trkpt lat="42.89313" lon="0.08162">
        <ele>1537</ele>
        <time>2018-04-05T06:38:00Z</time>
      </trkpt>
      <trkpt lat="42.89296" lon="0.0817">
        <ele>1537</ele>
        <time>2018-04-05T06:38:20Z</time>
      </trkpt>
      <trkpt lat="42.89278" lon="0.08171">
        <ele>1540</ele>
        <time>2018-04-05T06:38:41Z</time>
      </trkpt>
      <trkpt lat="42.89259" lon="0.08171">
        <ele>1545</ele>
        <time>2018-04-05T06:39:09Z</time>
      </trkpt>
      <trkpt lat="42.89243" lon="0.08183">
        <ele>1554</ele>
        <time>2018-04-05T06:39:30Z</time>
      </trkpt>
      <trkpt lat="42.89228" lon="0.08195">
        <ele>1557</ele>
        <time>2018-04-05T06:39:55Z</time>
      </trkpt>
      <trkpt lat="42.89212" lon="0.08208">
        <ele>1558</ele>
        <time>2018-04-05T06:40:19Z</time>
      </trkpt>
      <trkpt lat="42.89196" lon="0.0822">
        <ele>1559</ele>
        <time>2018-04-05T06:40:40Z</time>
      </trkpt>
      <trkpt lat="42.89179" lon="0.08231">
        <ele>1560</ele>
        <time>2018-04-05T06:41:00Z</time>
      </trkpt>
      <trkpt lat="42.89164" lon="0.08244">
        <ele>1564</ele>
        <time>2018-04-05T06:41:21Z</time>
      </trkpt>
      <trkpt lat="42.89147" lon="0.08256">
        <ele>1560</ele>
        <time>2018-04-05T06:41:46Z</time>
      </trkpt>
      <trkpt lat="42.8913" lon="0.08262">
        <ele>1561</ele>
        <time>2018-04-05T06:42:09Z</time>
      </trkpt>
      <trkpt lat="42.89111" lon="0.08268">
        <ele>1563</ele>
        <time>2018-04-05T06:42:28Z</time>
      </trkpt>
      <trkpt lat="42.89093" lon="0.08275">
        <ele>1564</ele>
        <time>2018-04-05T06:42:53Z</time>
      </trkpt>
      <trkpt lat="42.89074" lon="0.0828">
        <ele>1572</ele>
        <time>2018-04-05T06:43:17Z</time>
      </trkpt>
      <trkpt lat="42.89057" lon="0.08288">
        <ele>1572</ele>
        <time>2018-04-05T06:43:38Z</time>
      </trkpt>
      <trkpt lat="42.89037" lon="0.08289">
        <ele>1573</ele>
        <time>2018-04-05T06:44:04Z</time>
      </trkpt>
      <trkpt lat="42.89019" lon="0.08295">
        <ele>1573</ele>
        <time>2018-04-05T06:44:20Z</time>
      </trkpt>
      <trkpt lat="42.89" lon="0.08296">
        <ele>1574</ele>
        <time>2018-04-05T06:44:37Z</time>
      </trkpt>
      <trkpt lat="42.88983" lon="0.08304">
        <ele>1579</ele>
        <time>2018-04-05T06:44:56Z</time>
      </trkpt>
      <trkpt lat="42.88964" lon="0.08309">
        <ele>1580</ele>
        <time>2018-04-05T06:45:24Z</time>
      </trkpt>
      <trkpt lat="42.88946" lon="0.08316">
        <ele>1579</ele>
        <time>2018-04-05T06:45:42Z</time>
      </trkpt>
      <trkpt lat="42.88928" lon="0.08316">
        <ele>1579</ele>
        <time>2018-04-05T06:46:01Z</time>
      </trkpt>
      <trkpt lat="42.8891" lon="0.08316">
        <ele>1581</ele>
        <time>2018-04-05T06:46:18Z</time>
      </trkpt>
      <trkpt lat="42.88892" lon="0.08313">
        <ele>1585</ele>
        <time>2018-04-05T06:46:34Z</time>
      </trkpt>
      <trkpt lat="42.88873" lon="0.08308">
        <ele>1587</ele>
        <time>2018-04-05T06:46:52Z</time>
      </trkpt>
      <trkpt lat="42.88854" lon="0.08312">
        <ele>1585</ele>
        <time>2018-04-05T06:47:20Z</time>
      </trkpt>
      <trkpt lat="42.88839" lon="0.08328">
        <ele>1579</ele>
        <time>2018-04-05T06:47:37Z</time>
      </trkpt>
      <trkpt lat="42.88824" lon="0.08343">
        <ele>1574</ele>
        <time>2018-04-05T06:47:56Z</time>
      </trkpt>
      <trkpt lat="42.88806" lon="0.08342">
        <ele>1574</ele>
        <time>2018-04-05T06:48:41Z</time>
      </trkpt>
      <trkpt lat="42.88788" lon="0.08343">
        <ele>1575</ele>
        <time>2018-04-05T06:49:00Z</time>
      </trkpt>
      <trkpt lat="42.88769" lon="0.0834">
        <ele>1577</ele>
        <time>2018-04-05T06:50:07Z</time>
      </trkpt>
      <trkpt lat="42.8875" lon="0.08346">
        <ele>1578</ele>
        <time>2018-04-05T06:50:34Z</time>
      </trkpt>
      <trkpt lat="42.88732" lon="0.08347">
        <ele>1577</ele>
        <time>2018-04-05T06:51:13Z</time>
      </trkpt>
      <trkpt lat="42.88715" lon="0.08338">
        <ele>1575</ele>
        <time>2018-04-05T06:51:41Z</time>
      </trkpt>
      <trkpt lat="42.88696" lon="0.08334">
        <ele>1574</ele>
        <time>2018-04-05T06:52:01Z</time>
      </trkpt>
      <trkpt lat="42.8868" lon="0.08323">
        <ele>1580</ele>
        <time>2018-04-05T06:52:22Z</time>
      </trkpt>
      <trkpt lat="42.88671" lon="0.08301">
        <ele>1584</ele>
        <time>2018-04-05T06:52:49Z</time>
      </trkpt>
      <trkpt lat="42.88653" lon="0.08299">
        <ele>1581</ele>
        <time>2018-04-05T06:57:57Z</time>
      </trkpt>
      <trkpt lat="42.88635" lon="0.08293">
        <ele>1581</ele>
        <time>2018-04-05T06:58:15Z</time>
      </trkpt>
      <trkpt lat="42.88616" lon="0.08293">
        <ele>1581</ele>
        <time>2018-04-05T06:58:34Z</time>
      </trkpt>
      <trkpt lat="42.88597" lon="0.0829">
        <ele>1581</ele>
        <time>2018-04-05T06:58:54Z</time>
      </trkpt>
      <trkpt lat="42.8858" lon="0.08283">
        <ele>1581</ele>
        <time>2018-04-05T06:59:13Z</time>
      </trkpt>
      <trkpt lat="42.88563" lon="0.08276">
        <ele>1581</ele>
        <time>2018-04-05T06:59:35Z</time>
      </trkpt>
      <trkpt lat="42.88544" lon="0.08269">
        <ele>1581</ele>
        <time>2018-04-05T06:59:56Z</time>
      </trkpt>
      <trkpt lat="42.88526" lon="0.08264">
        <ele>1581</ele>
        <time>2018-04-05T07:00:18Z</time>
      </trkpt>
      <trkpt lat="42.88511" lon="0.08252">
        <ele>1582</ele>
        <time>2018-04-05T07:00:38Z</time>
      </trkpt>
      <trkpt lat="42.88494" lon="0.08241">
        <ele>1587</ele>
        <time>2018-04-05T07:00:58Z</time>
      </trkpt>
      <trkpt lat="42.88476" lon="0.08233">
        <ele>1590</ele>
        <time>2018-04-05T07:01:18Z</time>
      </trkpt>
      <trkpt lat="42.88459" lon="0.08226">
        <ele>1591</ele>
        <time>2018-04-05T07:01:40Z</time>
      </trkpt>
      <trkpt lat="42.88441" lon="0.08221">
        <ele>1591</ele>
        <time>2018-04-05T07:02:04Z</time>
      </trkpt>
      <trkpt lat="42.88422" lon="0.08219">
        <ele>1590</ele>
        <time>2018-04-05T07:02:25Z</time>
      </trkpt>
      <trkpt lat="42.88404" lon="0.08211">
        <ele>1593</ele>
        <time>2018-04-05T07:02:53Z</time>
      </trkpt>
      <trkpt lat="42.88386" lon="0.08216">
        <ele>1592</ele>
        <time>2018-04-05T07:03:15Z</time>
      </trkpt>
      <trkpt lat="42.88367" lon="0.08217">
        <ele>1593</ele>
        <time>2018-04-05T07:03:37Z</time>
      </trkpt>
      <trkpt lat="42.88349" lon="0.08215">
        <ele>1593</ele>
        <time>2018-04-05T07:03:57Z</time>
      </trkpt>
      <trkpt lat="42.88331" lon="0.08214">
        <ele>1596</ele>
        <time>2018-04-05T07:04:20Z</time>
      </trkpt>
      <trkpt lat="42.88312" lon="0.08216">
        <ele>1596</ele>
        <time>2018-04-05T07:04:40Z</time>
      </trkpt>
      <trkpt lat="42.88294" lon="0.08216">
        <ele>1596</ele>
        <time>2018-04-05T07:04:59Z</time>
      </trkpt>
      <trkpt lat="42.88275" lon="0.08216">
        <ele>1597</ele>
        <time>2018-04-05T07:05:24Z</time>
      </trkpt>
      <trkpt lat="42.88257" lon="0.08218">
        <ele>1596</ele>
        <time>2018-04-05T07:05:45Z</time>
      </trkpt>
      <trkpt lat="42.88239" lon="0.08221">
        <ele>1599</ele>
        <time>2018-04-05T07:06:07Z</time>
      </trkpt>
      <trkpt lat="42.88221" lon="0.08225">
        <ele>1600</ele>
        <time>2018-04-05T07:06:27Z</time>
      </trkpt>
      <trkpt lat="42.88204" lon="0.08218">
        <ele>1603</ele>
        <time>2018-04-05T07:06:50Z</time>
      </trkpt>
      <trkpt lat="42.88185" lon="0.08213">
        <ele>1604</ele>
        <time>2018-04-05T07:07:13Z</time>
      </trkpt>
      <trkpt lat="42.88166" lon="0.08211">
        <ele>1612</ele>
        <time>2018-04-05T07:07:36Z</time>
      </trkpt>
      <trkpt lat="42.88151" lon="0.08225">
        <ele>1610</ele>
        <time>2018-04-05T07:07:58Z</time>
      </trkpt>
      <trkpt lat="42.88132" lon="0.08223">
        <ele>1612</ele>
        <time>2018-04-05T07:08:18Z</time>
      </trkpt>
      <trkpt lat="42.88114" lon="0.08222">
        <ele>1614</ele>
        <time>2018-04-05T07:08:40Z</time>
      </trkpt>
      <trkpt lat="42.88096" lon="0.08227">
        <ele>1615</ele>
        <time>2018-04-05T07:09:00Z</time>
      </trkpt>
      <trkpt lat="42.88082" lon="0.08242">
        <ele>1618</ele>
        <time>2018-04-05T07:09:23Z</time>
      </trkpt>
      <trkpt lat="42.88064" lon="0.0825">
        <ele>1622</ele>
        <time>2018-04-05T07:09:45Z</time>
      </trkpt>
      <trkpt lat="42.88047" lon="0.08261">
        <ele>1613</ele>
        <time>2018-04-05T07:10:09Z</time>
      </trkpt>
      <trkpt lat="42.88029" lon="0.08268">
        <ele>1615</ele>
        <time>2018-04-05T07:10:33Z</time>
      </trkpt>
      <trkpt lat="42.88013" lon="0.0828">
        <ele>1615</ele>
        <time>2018-04-05T07:10:55Z</time>
      </trkpt>
      <trkpt lat="42.87996" lon="0.08292">
        <ele>1623</ele>
        <time>2018-04-05T07:11:16Z</time>
      </trkpt>
      <trkpt lat="42.87978" lon="0.08299">
        <ele>1623</ele>
        <time>2018-04-05T07:11:40Z</time>
      </trkpt>
      <trkpt lat="42.87959" lon="0.08299">
        <ele>1625</ele>
        <time>2018-04-05T07:12:02Z</time>
      </trkpt>
      <trkpt lat="42.87945" lon="0.08283">
        <ele>1628</ele>
        <time>2018-04-05T07:12:24Z</time>
      </trkpt>
      <trkpt lat="42.87926" lon="0.08281">
        <ele>1630</ele>
        <time>2018-04-05T07:12:45Z</time>
      </trkpt>
      <trkpt lat="42.87909" lon="0.0829">
        <ele>1636</ele>
        <time>2018-04-05T07:13:04Z</time>
      </trkpt>
      <trkpt lat="42.87893" lon="0.08302">
        <ele>1635</ele>
        <time>2018-04-05T07:13:21Z</time>
      </trkpt>
      <trkpt lat="42.87876" lon="0.08311">
        <ele>1635</ele>
        <time>2018-04-05T07:13:40Z</time>
      </trkpt>
      <trkpt lat="42.87859" lon="0.08321">
        <ele>1634</ele>
        <time>2018-04-05T07:14:02Z</time>
      </trkpt>
      <trkpt lat="42.87845" lon="0.08337">
        <ele>1627</ele>
        <time>2018-04-05T07:14:23Z</time>
      </trkpt>
      <trkpt lat="42.8783" lon="0.08352">
        <ele>1630</ele>
        <time>2018-04-05T07:14:42Z</time>
      </trkpt>
      <trkpt lat="42.87813" lon="0.08362">
        <ele>1631</ele>
        <time>2018-04-05T07:15:01Z</time>
      </trkpt>
      <trkpt lat="42.87796" lon="0.08373">
        <ele>1632</ele>
        <time>2018-04-05T07:15:22Z</time>
      </trkpt>
      <trkpt lat="42.87778" lon="0.0838">
        <ele>1633</ele>
        <time>2018-04-05T07:15:43Z</time>
      </trkpt>
      <trkpt lat="42.87761" lon="0.08389">
        <ele>1634</ele>
        <time>2018-04-05T07:16:03Z</time>
      </trkpt>
      <trkpt lat="42.87742" lon="0.08393">
        <ele>1640</ele>
        <time>2018-04-05T07:16:22Z</time>
      </trkpt>
      <trkpt lat="42.87724" lon="0.084">
        <ele>1640</ele>
        <time>2018-04-05T07:16:41Z</time>
      </trkpt>
      <trkpt lat="42.87705" lon="0.08401">
        <ele>1641</ele>
        <time>2018-04-05T07:17:00Z</time>
      </trkpt>
      <trkpt lat="42.87687" lon="0.08404">
        <ele>1641</ele>
        <time>2018-04-05T07:17:18Z</time>
      </trkpt>
      <trkpt lat="42.87668" lon="0.08406">
        <ele>1640</ele>
        <time>2018-04-05T07:17:41Z</time>
      </trkpt>
      <trkpt lat="42.87651" lon="0.08413">
        <ele>1645</ele>
        <time>2018-04-05T07:18:01Z</time>
      </trkpt>
      <trkpt lat="42.87633" lon="0.08423">
        <ele>1639</ele>
        <time>2018-04-05T07:18:22Z</time>
      </trkpt>
      <trkpt lat="42.87615" lon="0.08427">
        <ele>1641</ele>
        <time>2018-04-05T07:18:43Z</time>
      </trkpt>
      <trkpt lat="42.87597" lon="0.08429">
        <ele>1642</ele>
        <time>2018-04-05T07:19:03Z</time>
      </trkpt>
      <trkpt lat="42.87578" lon="0.08433">
        <ele>1648</ele>
        <time>2018-04-05T07:19:33Z</time>
      </trkpt>
      <trkpt lat="42.87561" lon="0.08438">
        <ele>1650</ele>
        <time>2018-04-05T07:19:53Z</time>
      </trkpt>
      <trkpt lat="42.87546" lon="0.08452">
        <ele>1651</ele>
        <time>2018-04-05T07:20:13Z</time>
      </trkpt>
      <trkpt lat="42.87532" lon="0.08469">
        <ele>1651</ele>
        <time>2018-04-05T07:20:36Z</time>
      </trkpt>
      <trkpt lat="42.87515" lon="0.08478">
        <ele>1651</ele>
        <time>2018-04-05T07:20:57Z</time>
      </trkpt>
      <trkpt lat="42.87505" lon="0.085">
        <ele>1650</ele>
        <time>2018-04-05T07:21:19Z</time>
      </trkpt>
      <trkpt lat="42.87489" lon="0.08512">
        <ele>1653</ele>
        <time>2018-04-05T07:21:39Z</time>
      </trkpt>
      <trkpt lat="42.87472" lon="0.08516">
        <ele>1656</ele>
        <time>2018-04-05T07:21:58Z</time>
      </trkpt>
      <trkpt lat="42.87453" lon="0.08517">
        <ele>1658</ele>
        <time>2018-04-05T07:22:21Z</time>
      </trkpt>
      <trkpt lat="42.87436" lon="0.08522">
        <ele>1661</ele>
        <time>2018-04-05T07:22:41Z</time>
      </trkpt>
      <trkpt lat="42.8742" lon="0.08533">
        <ele>1661</ele>
        <time>2018-04-05T07:22:59Z</time>
      </trkpt>
      <trkpt lat="42.87404" lon="0.08547">
        <ele>1673</ele>
        <time>2018-04-05T07:23:27Z</time>
      </trkpt>
      <trkpt lat="42.8739" lon="0.08564">
        <ele>1672</ele>
        <time>2018-04-05T07:23:52Z</time>
      </trkpt>
      <trkpt lat="42.87373" lon="0.08552">
        <ele>1677</ele>
        <time>2018-04-05T07:24:19Z</time>
      </trkpt>
      <trkpt lat="42.8736" lon="0.08573">
        <ele>1678</ele>
        <time>2018-04-05T07:24:49Z</time>
      </trkpt>
      <trkpt lat="42.87346" lon="0.08589">
        <ele>1677</ele>
        <time>2018-04-05T07:25:13Z</time>
      </trkpt>
      <trkpt lat="42.8733" lon="0.08602">
        <ele>1684</ele>
        <time>2018-04-05T07:25:35Z</time>
      </trkpt>
      <trkpt lat="42.87314" lon="0.08615">
        <ele>1685</ele>
        <time>2018-04-05T07:25:59Z</time>
      </trkpt>
      <trkpt lat="42.87295" lon="0.08613">
        <ele>1686</ele>
        <time>2018-04-05T07:26:24Z</time>
      </trkpt>
      <trkpt lat="42.87279" lon="0.08601">
        <ele>1687</ele>
        <time>2018-04-05T07:26:45Z</time>
      </trkpt>
      <trkpt lat="42.87261" lon="0.08597">
        <ele>1689</ele>
        <time>2018-04-05T07:27:05Z</time>
      </trkpt>
      <trkpt lat="42.87243" lon="0.08603">
        <ele>1696</ele>
        <time>2018-04-05T07:27:28Z</time>
      </trkpt>
      <trkpt lat="42.87227" lon="0.08614">
        <ele>1698</ele>
        <time>2018-04-05T07:27:50Z</time>
      </trkpt>
      <trkpt lat="42.87208" lon="0.0861">
        <ele>1700</ele>
        <time>2018-04-05T07:28:29Z</time>
      </trkpt>
      <trkpt lat="42.8719" lon="0.08616">
        <ele>1702</ele>
        <time>2018-04-05T07:28:57Z</time>
      </trkpt>
      <trkpt lat="42.87173" lon="0.08626">
        <ele>1703</ele>
        <time>2018-04-05T07:29:29Z</time>
      </trkpt>
      <trkpt lat="42.87156" lon="0.08631">
        <ele>1719</ele>
        <time>2018-04-05T07:29:57Z</time>
      </trkpt>
      <trkpt lat="42.87137" lon="0.08633">
        <ele>1721</ele>
        <time>2018-04-05T07:30:33Z</time>
      </trkpt>
      <trkpt lat="42.87127" lon="0.08611">
        <ele>1724</ele>
        <time>2018-04-05T07:31:28Z</time>
      </trkpt>
      <trkpt lat="42.87108" lon="0.08613">
        <ele>1727</ele>
        <time>2018-04-05T07:32:01Z</time>
      </trkpt>
      <trkpt lat="42.8709" lon="0.08621">
        <ele>1729</ele>
        <time>2018-04-05T07:32:33Z</time>
      </trkpt>
      <trkpt lat="42.87073" lon="0.08611">
        <ele>1750</ele>
        <time>2018-04-05T07:33:21Z</time>
      </trkpt>
      <trkpt lat="42.87055" lon="0.0862">
        <ele>1753</ele>
        <time>2018-04-05T07:34:00Z</time>
      </trkpt>
      <trkpt lat="42.87039" lon="0.08631">
        <ele>1756</ele>
        <time>2018-04-05T07:34:30Z</time>
      </trkpt>
      <trkpt lat="42.87025" lon="0.08615">
        <ele>1760</ele>
        <time>2018-04-05T07:35:48Z</time>
      </trkpt>
      <trkpt lat="42.87008" lon="0.08623">
        <ele>1762</ele>
        <time>2018-04-05T07:36:33Z</time>
      </trkpt>
      <trkpt lat="42.86992" lon="0.08637">
        <ele>1784</ele>
        <time>2018-04-05T07:37:08Z</time>
      </trkpt>
      <trkpt lat="42.86974" lon="0.08635">
        <ele>1788</ele>
        <time>2018-04-05T07:38:26Z</time>
      </trkpt>
      <trkpt lat="42.86964" lon="0.08614">
        <ele>1792</ele>
        <time>2018-04-05T07:39:51Z</time>
      </trkpt>
      <trkpt lat="42.86949" lon="0.08628">
        <ele>1795</ele>
        <time>2018-04-05T07:40:36Z</time>
      </trkpt>
      <trkpt lat="42.86945" lon="0.08605">
        <ele>1798</ele>
        <time>2018-04-05T07:41:13Z</time>
      </trkpt>
      <trkpt lat="42.86927" lon="0.08611">
        <ele>1802</ele>
        <time>2018-04-05T07:42:24Z</time>
      </trkpt>
      <trkpt lat="42.8691" lon="0.08601">
        <ele>1826</ele>
        <time>2018-04-05T07:44:01Z</time>
      </trkpt>
      <trkpt lat="42.86894" lon="0.08614">
        <ele>1830</ele>
        <time>2018-04-05T07:44:33Z</time>
      </trkpt>
      <trkpt lat="42.86877" lon="0.08626">
        <ele>1833</ele>
        <time>2018-04-05T07:45:15Z</time>
      </trkpt>
      <trkpt lat="42.86869" lon="0.08648">
        <ele>1834</ele>
        <time>2018-04-05T07:50:27Z</time>
      </trkpt>
      <trkpt lat="42.86851" lon="0.08654">
        <ele>1840</ele>
        <time>2018-04-05T07:53:14Z</time>
      </trkpt>
      <trkpt lat="42.86836" lon="0.08669">
        <ele>1846</ele>
        <time>2018-04-05T07:53:46Z</time>
      </trkpt>
      <trkpt lat="42.86822" lon="0.08686">
        <ele>1854</ele>
        <time>2018-04-05T07:54:13Z</time>
      </trkpt>
      <trkpt lat="42.86805" lon="0.08695">
        <ele>1856</ele>
        <time>2018-04-05T07:54:41Z</time>
      </trkpt>
      <trkpt lat="42.86789" lon="0.08705">
        <ele>1859</ele>
        <time>2018-04-05T07:55:14Z</time>
      </trkpt>
      <trkpt lat="42.86771" lon="0.0871">
        <ele>1861</ele>
        <time>2018-04-05T07:55:44Z</time>
      </trkpt>
      <trkpt lat="42.86753" lon="0.08707">
        <ele>1864</ele>
        <time>2018-04-05T07:56:13Z</time>
      </trkpt>
      <trkpt lat="42.86736" lon="0.08717">
        <ele>1884</ele>
        <time>2018-04-05T07:56:45Z</time>
      </trkpt>
      <trkpt lat="42.86725" lon="0.08737">
        <ele>1882</ele>
        <time>2018-04-05T07:57:12Z</time>
      </trkpt>
      <trkpt lat="42.86707" lon="0.08745">
        <ele>1887</ele>
        <time>2018-04-05T07:57:39Z</time>
      </trkpt>
      <trkpt lat="42.86689" lon="0.08748">
        <ele>1891</ele>
        <time>2018-04-05T07:58:10Z</time>
      </trkpt>
      <trkpt lat="42.86671" lon="0.08742">
        <ele>1894</ele>
        <time>2018-04-05T07:58:45Z</time>
      </trkpt>
      <trkpt lat="42.86653" lon="0.08743">
        <ele>1911</ele>
        <time>2018-04-05T07:59:19Z</time>
      </trkpt>
      <trkpt lat="42.86636" lon="0.08751">
        <ele>1912</ele>
        <time>2018-04-05T07:59:47Z</time>
      </trkpt>
      <trkpt lat="42.86621" lon="0.08765">
        <ele>1918</ele>
        <time>2018-04-05T08:00:24Z</time>
      </trkpt>
      <trkpt lat="42.86609" lon="0.08784">
        <ele>1920</ele>
        <time>2018-04-05T08:00:59Z</time>
      </trkpt>
      <trkpt lat="42.86597" lon="0.08803">
        <ele>1921</ele>
        <time>2018-04-05T08:01:31Z</time>
      </trkpt>
      <trkpt lat="42.86586" lon="0.08825">
        <ele>1925</ele>
        <time>2018-04-05T08:02:08Z</time>
      </trkpt>
      <trkpt lat="42.86568" lon="0.08825">
        <ele>1948</ele>
        <time>2018-04-05T08:03:15Z</time>
      </trkpt>
      <trkpt lat="42.86567" lon="0.08849">
        <ele>1950</ele>
        <time>2018-04-05T08:03:54Z</time>
      </trkpt>
      <trkpt lat="42.86571" lon="0.08873">
        <ele>1954</ele>
        <time>2018-04-05T08:04:28Z</time>
      </trkpt>
      <trkpt lat="42.86552" lon="0.08874">
        <ele>1960</ele>
        <time>2018-04-05T08:05:26Z</time>
      </trkpt>
      <trkpt lat="42.86536" lon="0.08863">
        <ele>1966</ele>
        <time>2018-04-05T08:05:56Z</time>
      </trkpt>
      <trkpt lat="42.86538" lon="0.08888">
        <ele>1966</ele>
        <time>2018-04-05T08:06:39Z</time>
      </trkpt>
      <trkpt lat="42.86541" lon="0.08913">
        <ele>1966</ele>
        <time>2018-04-05T08:07:15Z</time>
      </trkpt>
      <trkpt lat="42.86538" lon="0.08938">
        <ele>1972</ele>
        <time>2018-04-05T08:07:53Z</time>
      </trkpt>
      <trkpt lat="42.8653" lon="0.0896">
        <ele>1975</ele>
        <time>2018-04-05T08:08:26Z</time>
      </trkpt>
      <trkpt lat="42.8652" lon="0.08982">
        <ele>1981</ele>
        <time>2018-04-05T08:09:05Z</time>
      </trkpt>
      <trkpt lat="42.86506" lon="0.08997">
        <ele>1992</ele>
        <time>2018-04-05T08:09:41Z</time>
      </trkpt>
      <trkpt lat="42.8649" lon="0.0901">
        <ele>2003</ele>
        <time>2018-04-05T08:10:22Z</time>
      </trkpt>
      <trkpt lat="42.86472" lon="0.09017">
        <ele>2007</ele>
        <time>2018-04-05T08:10:54Z</time>
      </trkpt>
      <trkpt lat="42.86464" lon="0.08994">
        <ele>2012</ele>
        <time>2018-04-05T08:11:34Z</time>
      </trkpt>
      <trkpt lat="42.86447" lon="0.09004">
        <ele>2014</ele>
        <time>2018-04-05T08:12:04Z</time>
      </trkpt>
      <trkpt lat="42.86435" lon="0.08986">
        <ele>2020</ele>
        <time>2018-04-05T08:12:36Z</time>
      </trkpt>
      <trkpt lat="42.86416" lon="0.08986">
        <ele>2035</ele>
        <time>2018-04-05T08:13:05Z</time>
      </trkpt>
      <trkpt lat="42.86399" lon="0.08994">
        <ele>2038</ele>
        <time>2018-04-05T08:13:41Z</time>
      </trkpt>
      <trkpt lat="42.86385" lon="0.0898">
        <ele>2044</ele>
        <time>2018-04-05T08:14:17Z</time>
      </trkpt>
      <trkpt lat="42.86375" lon="0.08958">
        <ele>2047</ele>
        <time>2018-04-05T08:14:53Z</time>
      </trkpt>
      <trkpt lat="42.86361" lon="0.08975">
        <ele>2049</ele>
        <time>2018-04-05T08:15:36Z</time>
      </trkpt>
      <trkpt lat="42.86346" lon="0.08989">
        <ele>2054</ele>
        <time>2018-04-05T08:16:48Z</time>
      </trkpt>
      <trkpt lat="42.86328" lon="0.08994">
        <ele>2066</ele>
        <time>2018-04-05T08:18:55Z</time>
      </trkpt>
      <trkpt lat="42.8631" lon="0.08995">
        <ele>2075</ele>
        <time>2018-04-05T08:20:10Z</time>
      </trkpt>
      <trkpt lat="42.86292" lon="0.08997">
        <ele>2082</ele>
        <time>2018-04-05T08:21:09Z</time>
      </trkpt>
      <trkpt lat="42.86274" lon="0.09001">
        <ele>2083</ele>
        <time>2018-04-05T08:21:44Z</time>
      </trkpt>
      <trkpt lat="42.86256" lon="0.09">
        <ele>2097</ele>
        <time>2018-04-05T08:22:19Z</time>
      </trkpt>
      <trkpt lat="42.86237" lon="0.08997">
        <ele>2108</ele>
        <time>2018-04-05T08:22:44Z</time>
      </trkpt>
      <trkpt lat="42.8622" lon="0.09003">
        <ele>2105</ele>
        <time>2018-04-05T08:23:18Z</time>
      </trkpt>
      <trkpt lat="42.86205" lon="0.09017">
        <ele>2107</ele>
        <time>2018-04-05T08:23:51Z</time>
      </trkpt>
      <trkpt lat="42.86189" lon="0.09033">
        <ele>2108</ele>
        <time>2018-04-05T08:24:28Z</time>
      </trkpt>
      <trkpt lat="42.86173" lon="0.09045">
        <ele>2108</ele>
        <time>2018-04-05T08:25:04Z</time>
      </trkpt>
      <trkpt lat="42.86156" lon="0.09053">
        <ele>2124</ele>
        <time>2018-04-05T08:25:42Z</time>
      </trkpt>
      <trkpt lat="42.8614" lon="0.09065">
        <ele>2125</ele>
        <time>2018-04-05T08:26:30Z</time>
      </trkpt>
      <trkpt lat="42.86121" lon="0.09067">
        <ele>2129</ele>
        <time>2018-04-05T08:27:04Z</time>
      </trkpt>
      <trkpt lat="42.86103" lon="0.0907">
        <ele>2132</ele>
        <time>2018-04-05T08:27:37Z</time>
      </trkpt>
      <trkpt lat="42.86088" lon="0.09056">
        <ele>2134</ele>
        <time>2018-04-05T08:46:39Z</time>
      </trkpt>
      <trkpt lat="42.86075" lon="0.09037">
        <ele>2146</ele>
        <time>2018-04-05T08:46:57Z</time>
      </trkpt>
      <trkpt lat="42.86059" lon="0.09025">
        <ele>2148</ele>
        <time>2018-04-05T08:47:20Z</time>
      </trkpt>
      <trkpt lat="42.86043" lon="0.09012">
        <ele>2149</ele>
        <time>2018-04-05T08:47:43Z</time>
      </trkpt>
      <trkpt lat="42.86034" lon="0.0899">
        <ele>2159</ele>
        <time>2018-04-05T08:48:13Z</time>
      </trkpt>
      <trkpt lat="42.86018" lon="0.09">
        <ele>2159</ele>
        <time>2018-04-05T08:48:41Z</time>
      </trkpt>
      <trkpt lat="42.86002" lon="0.09012">
        <ele>2153</ele>
        <time>2018-04-05T08:49:12Z</time>
      </trkpt>
      <trkpt lat="42.85983" lon="0.09018">
        <ele>2149</ele>
        <time>2018-04-05T08:49:43Z</time>
      </trkpt>
      <trkpt lat="42.85969" lon="0.09003">
        <ele>2148</ele>
        <time>2018-04-05T08:50:33Z</time>
      </trkpt>
      <trkpt lat="42.85957" lon="0.08982">
        <ele>2147</ele>
        <time>2018-04-05T08:50:42Z</time>
      </trkpt>
      <trkpt lat="42.85942" lon="0.08995">
        <ele>2145</ele>
        <time>2018-04-05T08:50:58Z</time>
      </trkpt>
      <trkpt lat="42.8594" lon="0.0902">
        <ele>2145</ele>
        <time>2018-04-05T08:51:22Z</time>
      </trkpt>
      <trkpt lat="42.85931" lon="0.09042">
        <ele>2143</ele>
        <time>2018-04-05T08:51:53Z</time>
      </trkpt>
      <trkpt lat="42.85916" lon="0.09057">
        <ele>2141</ele>
        <time>2018-04-05T08:52:17Z</time>
      </trkpt>
      <trkpt lat="42.85894" lon="0.09061">
        <ele>2141</ele>
        <time>2018-04-05T08:52:38Z</time>
      </trkpt>
      <trkpt lat="42.85878" lon="0.09072">
        <ele>2142</ele>
        <time>2018-04-05T08:52:55Z</time>
      </trkpt>
      <trkpt lat="42.85859" lon="0.0907">
        <ele>2143</ele>
        <time>2018-04-05T08:53:08Z</time>
      </trkpt>
      <trkpt lat="42.85848" lon="0.09046">
        <ele>2140</ele>
        <time>2018-04-05T08:53:17Z</time>
      </trkpt>
      <trkpt lat="42.85831" lon="0.09037">
        <ele>2141</ele>
        <time>2018-04-05T08:53:46Z</time>
      </trkpt>
      <trkpt lat="42.8582" lon="0.09057">
        <ele>2145</ele>
        <time>2018-04-05T08:54:31Z</time>
      </trkpt>
      <trkpt lat="42.8581" lon="0.09079">
        <ele>2147</ele>
        <time>2018-04-05T08:54:58Z</time>
      </trkpt>
      <trkpt lat="42.85796" lon="0.09094">
        <ele>2155</ele>
        <time>2018-04-05T08:55:29Z</time>
      </trkpt>
      <trkpt lat="42.85796" lon="0.0907">
        <ele>2148</ele>
      </trkpt>
    </trkseg>
  </trk>
</gpx>